Time;durP1;ratioP1;P1;durP2;ratioP2;P2;SDS_P1;SDS_P2;PMS_P1;PMS_P2;Temp;Humidity;BMP_temperature;BMP_pressure;BME280_temperature;BME280_humidity;BME280_pressure;Samples;Min_cycle;Max_cycle;Signal;HPM_P1;HPM_P2
2022/09/11 00:01:42;;;;;;;10.00;7.60;;;;;;;12.51;97.87;97443.70;105951;1280;24251;-89
2022/09/11 00:04:10;;;;;;;9.40;7.90;;;;;;;12.52;98.07;97443.96;105991;1280;24254;-89
2022/09/11 00:06:38;;;;;;;10.50;7.90;;;;;;;12.52;98.81;97446.91;106144;1279;22538;-88
2022/09/11 00:09:06;;;;;;;11.10;8.00;;;;;;;12.50;98.50;97444.65;106049;1279;22642;-90
2022/09/11 00:11:41;;;;;;;9.20;7.80;;;;;;;12.50;98.66;97444.27;106068;1279;26572;-92
2022/09/11 00:14:12;;;;;;;10.30;8.80;;;;;;;12.49;98.55;97438.83;105736;1282;24262;-90
2022/09/11 00:16:44;;;;;;;12.10;8.50;;;;;;;12.51;98.31;97435.96;106167;1280;24371;-88
2022/09/11 00:19:18;;;;;;;9.50;8.50;;;;;;;12.53;98.38;97433.67;106207;1279;22593;-91
2022/09/11 00:21:50;;;;;;;13.90;8.70;;;;;;;12.54;98.30;97434.46;106206;1280;25239;-91
2022/09/11 00:24:18;;;;;;;12.00;8.60;;;;;;;12.46;98.41;97420.17;106132;1279;23976;-90
2022/09/11 00:26:47;;;;;;;11.50;10.40;;;;;;;12.57;98.16;97433.82;105546;1281;25519;-91
2022/09/11 00:29:15;;;;;;;15.00;9.90;;;;;;;12.61;98.42;97432.54;106191;1280;25265;-91
2022/09/11 00:31:42;;;;;;;10.70;9.20;;;;;;;12.66;98.14;97431.81;105842;1281;25978;-91
2022/09/11 00:34:11;;;;;;;13.60;9.40;;;;;;;12.71;98.09;97433.92;106233;1280;25418;-89
2022/09/11 00:36:40;;;;;;;13.60;12.20;;;;;;;12.76;98.54;97430.20;106133;1279;22640;-92
2022/09/11 00:39:13;;;;;;;15.00;13.70;;;;;;;12.76;98.28;97432.73;105918;1281;25258;-90
2022/09/11 00:41:44;;;;;;;13.20;11.90;;;;;;;12.78;98.23;97433.90;105797;1281;24206;-90
2022/09/11 00:44:14;;;;;;;12.00;10.60;;;;;;;12.82;98.01;97435.52;105935;1281;22881;-90
2022/09/11 00:46:58;;;;;;;12.10;10.00;;;;;;;12.84;98.77;97438.48;106175;1279;22561;-91
2022/09/11 00:49:32;;;;;;;10.60;9.10;;;;;;;12.83;98.60;97433.51;106204;1280;22504;-91
2022/09/11 00:52:33;;;;;;;11.80;8.20;;;;;;;12.84;98.41;97431.14;106251;1280;22888;-90
2022/09/11 00:55:06;;;;;;;9.30;8.30;;;;;;;12.86;99.32;97430.77;105805;1281;22562;-90
2022/09/11 00:57:41;;;;;;;10.40;7.90;;;;;;;12.85;99.85;97433.18;105702;1281;22757;-90
2022/09/11 01:00:11;;;;;;;10.40;7.40;;;;;;;12.85;99.80;97431.77;106151;1280;22563;-92
2022/09/11 01:02:45;;;;;;;12.20;8.70;;;;;;;12.83;99.78;97434.36;106150;1280;25854;-91
2022/09/11 01:05:15;;;;;;;12.30;9.00;;;;;;;12.85;99.87;97432.56;105900;1281;23045;-90
2022/09/11 01:07:46;;;;;;;10.80;8.20;;;;;;;12.84;99.57;97435.30;106323;1279;25494;-91
2022/09/11 01:10:14;;;;;;;10.90;8.60;;;;;;;12.85;99.97;97438.56;106564;1280;22779;-92
2022/09/11 01:13:26;;;;;;;9.70;8.60;;;;;;;12.85;100.00;97439.70;105949;1280;22575;-93
2022/09/11 01:16:27;;;;;;;9.80;8.20;;;;;;;12.83;100.00;97440.38;105748;1284;25228;-92
2022/09/11 01:19:07;;;;;;;9.40;7.90;;;;;;;12.86;100.00;97437.69;105753;1284;25813;-90
2022/09/11 01:21:44;;;;;;;8.20;7.30;;;;;;;12.86;100.00;97433.15;105965;1284;23806;-92
2022/09/11 01:24:24;;;;;;;9.70;7.80;;;;;;;12.87;100.00;97433.04;105912;1284;24252;-90
2022/09/11 01:27:29;;;;;;;10.00;8.10;;;;;;;12.89;100.00;97436.12;107846;1284;22584;-89
2022/09/11 01:30:07;;;;;;;13.40;7.70;;;;;;;12.85;100.00;97426.15;108035;1285;22569;-91
2022/09/11 01:33:03;;;;;;;15.60;8.20;;;;;;;12.88;100.00;97432.40;106042;1284;22562;-91
2022/09/11 01:35:52;;;;;;;8.10;7.10;;;;;;;12.85;100.00;97431.95;105884;1285;22541;-92
2022/09/11 01:38:40;;;;;;;9.70;7.40;;;;;;;12.86;100.00;97430.98;105784;1284;26530;-91
2022/09/11 01:41:29;;;;;;;8.20;7.40;;;;;;;12.84;100.00;97425.67;105634;1284;22672;-89
2022/09/11 01:44:09;;;;;;;9.20;7.40;;;;;;;12.80;100.00;97422.25;105608;1284;22553;-90
2022/09/11 01:46:48;;;;;;;8.30;6.90;;;;;;;12.79;100.00;97420.34;105848;1281;22584;-93
2022/09/11 01:49:28;;;;;;;8.30;6.20;;;;;;;12.80;100.00;97415.83;106046;1281;25294;-92
2022/09/11 01:52:04;;;;;;;7.70;6.90;;;;;;;12.78;100.00;97414.60;106137;1281;25983;-91
2022/09/11 01:54:41;;;;;;;9.90;7.00;;;;;;;12.78;100.00;97410.88;106443;1281;24331;-91
2022/09/11 01:57:35;;;;;;;8.00;7.00;;;;;;;12.78;100.00;97410.89;106006;1281;22562;-92
2022/09/11 02:00:10;;;;;;;8.90;7.10;;;;;;;12.79;100.00;97411.25;106186;1281;22559;-92
2022/09/11 02:03:06;;;;;;;11.30;7.40;;;;;;;12.77;100.00;97410.75;106403;1281;23880;-92
2022/09/11 02:05:46;;;;;;;8.90;7.20;;;;;;;12.75;100.00;97408.13;106338;1281;23816;-90
2022/09/11 02:08:35;;;;;;;10.70;6.90;;;;;;;12.70;100.00;97406.58;106032;1281;26605;-93
2022/09/11 02:11:09;;;;;;;8.40;6.90;;;;;;;12.68;100.00;97404.80;106197;1281;23993;-91
2022/09/11 02:13:58;;;;;;;10.40;7.90;;;;;;;12.67;100.00;97405.95;105979;1281;22576;-90
2022/09/11 02:16:55;;;;;;;11.10;7.10;;;;;;;12.63;100.00;97399.24;105807;1281;25560;-91
2022/09/11 02:19:27;;;;;;;8.70;6.90;;;;;;;12.60;100.00;97400.64;105714;1286;25483;-91
2022/09/11 02:21:57;;;;;;;8.60;7.60;;;;;;;12.59;100.00;97395.43;105793;1284;25935;-87
2022/09/11 02:24:27;;;;;;;10.30;7.30;;;;;;;12.52;100.00;97395.64;105521;1285;22619;-90
2022/09/11 02:27:00;;;;;;;9.70;7.30;;;;;;;12.49;100.00;97397.21;105608;1284;23810;-91
2022/09/11 02:29:30;;;;;;;9.30;8.10;;;;;;;12.48;100.00;97399.16;105714;1284;22588;-92
2022/09/11 02:32:00;;;;;;;10.40;8.80;;;;;;;12.48;100.00;97397.70;105751;1284;22655;-92
2022/09/11 02:34:33;;;;;;;9.10;8.20;;;;;;;12.49;100.00;97402.14;105802;1284;25239;-92
2022/09/11 02:37:16;;;;;;;11.10;8.30;;;;;;;12.50;100.00;97408.93;105759;1284;26543;-92
2022/09/11 02:39:57;;;;;;;9.20;8.40;;;;;;;12.50;100.00;97408.69;105746;1284;25601;-90
2022/09/11 02:42:35;;;;;;;21.40;9.80;;;;;;;12.52;100.00;97410.36;105665;1284;22774;-91
2022/09/11 02:45:40;;;;;;;14.00;12.70;;;;;;;12.51;100.00;97413.36;105606;1284;23451;-90
2022/09/11 02:48:35;;;;;;;16.30;12.70;;;;;;;12.47;100.00;97415.27;105680;1284;25424;-92
2022/09/11 02:51:06;;;;;;;;;;;;;;;12.44;100.00;97410.73;105833;1281;22637;-91
2022/09/11 02:53:53;;;;;;;20.20;18.20;;;;;;;12.44;100.00;97409.77;106101;1281;25415;-90
2022/09/11 02:56:43;;;;;;;17.10;15.60;;;;;;;12.44;100.00;97406.70;105701;1284;22778;-92
2022/09/11 02:59:25;;;;;;;18.00;16.30;;;;;;;12.41;100.00;97405.82;105685;1281;24203;-89
2022/09/11 03:01:58;;;;;;;14.20;12.70;;;;;;;12.39;100.00;97402.71;105788;1281;22586;-92
2022/09/11 03:04:28;;;;;;;12.30;11.10;;;;;;;12.39;100.00;97403.06;105725;1281;24334;-91
2022/09/11 03:06:57;;;;;;;13.30;12.00;;;;;;;12.41;100.00;97400.88;105927;1281;24214;-90
2022/09/11 03:09:25;;;;;;;13.40;11.50;;;;;;;12.42;100.00;97401.30;108315;1281;22553;-88
2022/09/11 03:11:58;;;;;;;13.60;12.00;;;;;;;12.43;100.00;97406.61;108727;1281;25848;-92
2022/09/11 03:14:26;;;;;;;14.20;12.80;;;;;;;12.44;100.00;97401.33;105805;1281;25511;-94
2022/09/11 03:16:55;;;;;;;11.40;10.10;;;;;;;12.45;100.00;97400.61;106032;1281;22557;-87
2022/09/11 03:19:24;;;;;;;12.80;11.10;;;;;;;12.45;100.00;97402.13;105655;1281;22807;-90
2022/09/11 03:21:52;;;;;;;17.80;16.10;;;;;;;12.42;100.00;97398.77;105621;1281;24642;-92
2022/09/11 03:24:21;;;;;;;15.80;14.40;;;;;;;12.37;100.00;97396.02;105782;1283;25957;-91
2022/09/11 03:26:49;;;;;;;15.50;14.10;;;;;;;12.34;100.00;97393.09;106027;1281;22560;-92
2022/09/11 03:29:17;;;;;;;11.90;10.70;;;;;;;12.35;100.00;97396.37;106390;1281;22570;-92
2022/09/11 03:31:46;;;;;;;13.60;11.70;;;;;;;12.34;100.00;97393.73;106384;1281;25358;-88
2022/09/11 03:34:16;;;;;;;8.40;7.10;;;;;;;12.35;100.00;97399.33;105664;1284;24053;-91
2022/09/11 03:36:46;;;;;;;9.20;8.10;;;;;;;12.35;100.00;97392.28;105700;1281;25477;-91
2022/09/11 03:39:14;;;;;;;11.20;10.10;;;;;;;12.35;100.00;97389.05;105770;1279;22612;-90
2022/09/11 03:41:43;;;;;;;14.20;12.80;;;;;;;12.36;100.00;97389.03;105704;1281;26752;-90
2022/09/11 03:44:13;;;;;;;14.40;12.40;;;;;;;12.37;100.00;97390.45;105729;1281;22547;-87
2022/09/11 03:46:41;;;;;;;13.90;12.50;;;;;;;12.40;100.00;97391.34;106148;1281;24414;-92
2022/09/11 03:49:09;;;;;;;11.80;10.60;;;;;;;12.41;100.00;97391.39;105817;1281;22541;-91
2022/09/11 03:51:38;;;;;;;12.20;10.00;;;;;;;12.45;100.00;97393.16;105807;1281;24040;-92
2022/09/11 03:54:06;;;;;;;18.10;15.00;;;;;;;12.45;100.00;97392.65;105647;1281;25299;-90
2022/09/11 03:56:36;;;;;;;17.40;15.50;;;;;;;12.46;100.00;97392.52;105773;1281;22566;-91
2022/09/11 03:59:05;;;;;;;23.10;21.00;;;;;;;12.49;100.00;97396.27;105818;1281;24253;-88
2022/09/11 04:01:34;;;;;;;23.50;21.40;;;;;;;12.48;100.00;97395.25;105998;1281;23955;-91
2022/09/11 04:04:03;;;;;;;20.20;18.50;;;;;;;12.50;100.00;97392.61;105739;1281;23263;-90
2022/09/11 04:06:35;;;;;;;16.70;14.10;;;;;;;12.52;100.00;97392.98;105797;1281;25311;-91
2022/09/11 04:09:03;;;;;;;17.40;15.90;;;;;;;12.54;100.00;97391.75;105708;1281;22616;-91
2022/09/11 04:11:34;;;;;;;17.20;15.30;;;;;;;12.55;100.00;97389.66;105732;1281;22605;-90
2022/09/11 04:14:07;;;;;;;18.60;16.80;;;;;;;12.54;100.00;97387.66;106048;1281;25444;-89
2022/09/11 04:16:36;;;;;;;18.70;17.10;;;;;;;12.55;100.00;97394.65;105897;1279;24251;-89
2022/09/11 04:19:04;;;;;;;25.90;23.60;;;;;;;12.53;100.00;97396.70;105747;1281;25250;-90
2022/09/11 04:21:35;;;;;;;25.50;23.50;;;;;;;12.53;100.00;97396.75;105710;1281;25088;-90
2022/09/11 04:24:03;;;;;;;24.60;22.40;;;;;;;12.54;100.00;97394.84;105727;1281;25391;-90
2022/09/11 04:26:33;;;;;;;14.00;12.70;;;;;;;12.59;100.00;97399.05;105884;1281;24516;-89
2022/09/11 04:29:07;;;;;;;12.50;10.60;;;;;;;12.58;100.00;97399.34;105899;1279;22598;-90
2022/09/11 04:31:37;;;;;;;10.40;9.40;;;;;;;12.60;100.00;97398.42;105737;1281;24383;-90
2022/09/11 04:34:10;;;;;;;10.20;8.40;;;;;;;12.61;100.00;97402.64;106070;1281;23218;-92
2022/09/11 04:36:38;;;;;;;10.10;9.10;;;;;;;12.61;100.00;97400.25;105776;1281;22708;-92
2022/09/11 04:39:10;;;;;;;10.00;9.00;;;;;;;12.65;100.00;97397.15;106061;1281;24373;-92
2022/09/11 04:41:38;;;;;;;11.00;9.90;;;;;;;12.66;100.00;97397.83;106079;1281;22560;-90
2022/09/11 04:44:06;;;;;;;11.70;10.40;;;;;;;12.65;100.00;97398.00;106553;1281;22601;-87
2022/09/11 04:46:40;;;;;;;13.40;11.80;;;;;;;12.65;100.00;97400.79;106595;1281;23906;-89
2022/09/11 04:49:09;;;;;;;14.30;12.20;;;;;;;12.63;100.00;97398.23;106553;1281;22552;-88
2022/09/11 04:51:40;;;;;;;13.80;12.40;;;;;;;12.63;100.00;97398.72;107291;1281;22556;-91
2022/09/11 04:54:16;;;;;;;14.00;11.90;;;;;;;12.65;100.00;97399.48;108209;1279;22563;-89
2022/09/11 04:56:45;;;;;;;;;;;;;;;12.67;100.00;97400.73;106018;1280;24487;-89
2022/09/11 04:59:18;;;;;;;17.80;16.20;;;;;;;12.67;100.00;97402.48;105721;1281;22672;-91
2022/09/11 05:01:52;;;;;;;18.50;16.90;;;;;;;12.69;100.00;97403.19;105968;1279;22742;-88
2022/09/11 05:04:20;;;;;;;18.20;16.70;;;;;;;12.71;100.00;97404.61;105484;1284;25371;-89
2022/09/11 05:06:54;;;;;;;17.30;15.70;;;;;;;12.71;100.00;97401.34;106032;1280;22540;-93
2022/09/11 05:09:22;;;;;;;18.50;16.70;;;;;;;12.71;100.00;97403.97;105806;1281;23943;-83
2022/09/11 05:11:50;;;;;;;16.00;13.10;;;;;;;12.73;100.00;97403.73;105714;1281;22549;-91
2022/09/11 05:14:21;;;;;;;11.90;9.90;;;;;;;12.74;100.00;97405.71;105743;1281;25659;-90
2022/09/11 05:16:51;;;;;;;11.60;10.30;;;;;;;12.74;100.00;97403.71;106027;1280;23901;-91
2022/09/11 05:19:21;;;;;;;12.20;10.10;;;;;;;12.78;100.00;97406.48;106269;1279;25439;-88
2022/09/11 05:21:50;;;;;;;12.70;9.30;;;;;;;12.83;100.00;97405.48;105523;1281;24394;-89
2022/09/11 05:24:19;;;;;;;10.50;9.20;;;;;;;12.84;100.00;97407.52;105933;1281;22538;-90
2022/09/11 05:26:47;;;;;;;15.80;8.90;;;;;;;12.85;100.00;97406.84;105760;1281;23337;-90
2022/09/11 05:29:15;;;;;;;9.60;8.10;;;;;;;12.88;100.00;97406.73;106015;1281;25477;-87
2022/09/11 05:31:48;;;;;;;11.60;8.90;;;;;;;12.92;100.00;97402.83;106063;1281;24286;-92
2022/09/11 05:34:21;;;;;;;12.30;9.70;;;;;;;12.95;100.00;97400.46;105814;1281;25255;-92
2022/09/11 05:36:50;;;;;;;12.60;10.10;;;;;;;12.95;100.00;97397.13;106032;1281;23999;-92
2022/09/11 05:39:18;;;;;;;13.10;11.90;;;;;;;12.96;100.00;97399.88;106176;1281;23213;-92
2022/09/11 05:41:50;;;;;;;12.30;11.10;;;;;;;12.98;100.00;97400.10;106067;1280;22595;-90
2022/09/11 05:44:18;;;;;;;14.20;12.70;;;;;;;13.00;100.00;97399.89;106171;1281;22654;-91
2022/09/11 05:46:47;;;;;;;14.20;12.60;;;;;;;13.04;100.00;97399.87;105665;1281;22780;-91
2022/09/11 05:49:15;;;;;;;18.80;17.00;;;;;;;13.09;100.00;97399.60;105863;1281;22521;-90
2022/09/11 05:51:43;;;;;;;19.10;17.50;;;;;;;13.11;100.00;97399.05;105854;1281;22592;-92
2022/09/11 05:54:11;;;;;;;19.10;17.30;;;;;;;13.09;100.00;97401.78;105760;1281;22700;-89
2022/09/11 05:56:40;;;;;;;18.20;15.70;;;;;;;13.09;100.00;97401.98;106070;1281;22592;-91
2022/09/11 05:59:15;;;;;;;18.90;17.20;;;;;;;13.12;100.00;97399.95;106162;1280;22908;-91
2022/09/11 06:01:46;;;;;;;19.50;17.60;;;;;;;13.16;100.00;97396.10;106045;1281;26692;-91
2022/09/11 06:04:18;;;;;;;;;;;;;;;13.19;100.00;97396.05;105782;1281;25377;-92
2022/09/11 06:06:48;;;;;;;21.20;19.20;;;;;;;13.22;100.00;97403.05;106041;1281;25354;-91
2022/09/11 06:09:19;;;;;;;22.30;20.30;;;;;;;13.23;100.00;97405.55;106110;1281;25278;-92
2022/09/11 06:11:46;;;;;;;21.70;19.70;;;;;;;13.22;100.00;97405.56;106057;1281;22610;-91
2022/09/11 06:14:14;;;;;;;21.00;18.90;;;;;;;13.17;100.00;97410.36;106016;1281;26610;-91
2022/09/11 06:16:43;;;;;;;17.30;15.80;;;;;;;13.16;100.00;97406.74;105606;1281;24113;-91
2022/09/11 06:19:15;;;;;;;20.00;17.20;;;;;;;13.20;100.00;97404.20;106099;1281;22759;-90
2022/09/11 06:21:44;;;;;;;17.70;15.80;;;;;;;13.25;100.00;97410.91;106214;1280;23269;-90
2022/09/11 06:24:25;;;;;;;18.40;16.80;;;;;;;13.32;100.00;97404.98;106162;1279;22714;-89
2022/09/11 06:26:53;;;;;;;20.30;18.70;;;;;;;13.33;100.00;97409.15;105783;1281;22642;-91
2022/09/11 06:29:22;;;;;;;21.20;19.30;;;;;;;13.32;100.00;97409.20;106047;1280;22674;-92
2022/09/11 06:31:50;;;;;;;18.90;17.30;;;;;;;13.32;100.00;97412.38;106101;1280;22583;-90
2022/09/11 06:34:21;;;;;;;20.20;18.60;;;;;;;13.35;100.00;97414.10;106612;1280;22896;-84
2022/09/11 06:36:50;;;;;;;18.60;17.10;;;;;;;13.38;100.00;97409.41;108947;1279;22673;-90
2022/09/11 06:39:29;;;;;;;20.50;18.90;;;;;;;13.38;100.00;97407.71;106946;1280;22731;-91
2022/09/11 06:41:58;;;;;;;26.20;24.00;;;;;;;13.38;100.00;97411.19;106277;1279;24286;-92
2022/09/11 06:44:30;;;;;;;30.10;22.80;;;;;;;13.38;100.00;97412.04;106121;1280;22747;-92
2022/09/11 06:46:59;;;;;;;24.20;22.00;;;;;;;13.37;100.00;97410.20;105997;1280;25434;-93
2022/09/11 06:49:27;;;;;;;18.40;16.70;;;;;;;13.37;100.00;97409.70;105623;1283;22655;-91
2022/09/11 06:52:34;;;;;;;24.00;22.00;;;;;;;13.37;100.00;97411.68;105427;1286;22873;-91
2022/09/11 06:55:13;;;;;;;21.50;19.40;;;;;;;13.34;100.00;97412.11;106744;1280;24217;-91
2022/09/11 06:57:46;;;;;;;22.70;20.90;;;;;;;13.33;100.00;97408.90;106218;1280;22631;-92
2022/09/11 07:00:16;;;;;;;21.80;19.90;;;;;;;13.32;100.00;97408.71;106114;1280;23206;-90
2022/09/11 07:02:45;;;;;;;18.60;17.10;;;;;;;13.35;100.00;97403.95;105846;1283;22572;-91
2022/09/11 07:05:13;;;;;;;17.00;15.70;;;;;;;13.39;100.00;97410.77;106179;1280;22608;-90
2022/09/11 07:07:43;;;;;;;18.00;16.50;;;;;;;13.37;100.00;97409.21;106328;1280;22794;-90
2022/09/11 07:10:11;;;;;;;12.80;11.30;;;;;;;13.38;100.00;97413.64;105972;1280;22769;-90
2022/09/11 07:12:40;;;;;;;10.70;9.70;;;;;;;13.36;100.00;97408.61;106160;1280;22902;-93
2022/09/11 07:15:09;;;;;;;13.70;9.00;;;;;;;13.34;100.00;97415.20;105861;1281;24016;-91
2022/09/11 07:17:37;;;;;;;12.00;10.70;;;;;;;13.34;100.00;97411.40;105813;1281;25358;-92
2022/09/11 07:20:09;;;;;;;13.40;12.10;;;;;;;13.34;100.00;97413.56;105937;1281;22770;-90
2022/09/11 07:22:37;;;;;;;16.30;14.80;;;;;;;13.34;100.00;97410.41;105726;1280;22776;-92
2022/09/11 07:25:06;;;;;;;15.40;14.00;;;;;;;13.32;100.00;97410.43;105614;1280;22621;-90
2022/09/11 07:27:36;;;;;;;11.80;10.30;;;;;;;13.33;100.00;97411.08;105682;1282;24374;-90
2022/09/11 07:30:06;;;;;;;12.60;10.30;;;;;;;13.32;100.00;97411.58;106016;1279;25547;-92
2022/09/11 07:32:37;;;;;;;10.40;9.40;;;;;;;13.31;100.00;97413.94;105788;1281;25902;-91
2022/09/11 07:35:06;;;;;;;9.90;9.00;;;;;;;13.32;100.00;97414.34;105534;1279;23099;-91
2022/09/11 07:37:37;;;;;;;10.00;9.10;;;;;;;13.32;100.00;97412.04;106051;1279;22752;-91
2022/09/11 07:40:06;;;;;;;10.50;9.50;;;;;;;13.37;100.00;97410.83;105737;1281;22567;-89
2022/09/11 07:42:34;;;;;;;10.70;9.70;;;;;;;13.38;100.00;97410.52;105681;1281;22723;-91
2022/09/11 07:45:02;;;;;;;10.10;8.90;;;;;;;13.35;100.00;97410.69;106069;1279;22612;-92
2022/09/11 07:47:33;;;;;;;10.80;9.20;;;;;;;13.37;100.00;97410.21;105698;1281;22731;-91
2022/09/11 07:50:01;;;;;;;10.10;9.10;;;;;;;13.40;100.00;97407.85;105530;1279;25542;-89
2022/09/11 07:52:30;;;;;;;10.70;8.40;;;;;;;13.41;100.00;97405.40;105985;1279;23933;-88
2022/09/11 07:55:02;;;;;;;10.30;7.90;;;;;;;13.40;100.00;97411.26;105928;1279;25324;-87
2022/09/11 07:57:32;;;;;;;8.60;7.20;;;;;;;13.42;100.00;97407.22;105781;1281;22670;-91
2022/09/11 08:00:03;;;;;;;8.10;7.10;;;;;;;13.43;100.00;97406.79;105676;1281;24330;-92
2022/09/11 08:02:47;;;;;;;8.20;6.40;;;;;;;13.42;100.00;97410.72;105756;1281;26648;-90
2022/09/11 08:05:19;;;;;;;7.00;6.00;;;;;;;13.42;100.00;97415.65;105574;1280;22645;-90
2022/09/11 08:07:48;;;;;;;7.00;5.90;;;;;;;13.42;100.00;97424.47;106002;1279;23224;-91
2022/09/11 08:10:16;;;;;;;6.50;5.70;;;;;;;13.41;100.00;97423.04;105541;1280;23111;-89
2022/09/11 08:12:55;;;;;;;5.80;5.20;;;;;;;13.46;100.00;97419.06;105768;1280;25624;-90
2022/09/11 08:15:30;;;;;;;5.80;4.80;;;;;;;13.45;100.00;97428.23;105957;1279;22572;-88
2022/09/11 08:17:59;;;;;;;5.70;5.20;;;;;;;13.40;100.00;97426.95;106992;1279;22657;-88
2022/09/11 08:20:30;;;;;;;7.00;5.50;;;;;;;13.41;100.00;97432.23;108637;1279;22540;-89
2022/09/11 08:22:59;;;;;;;6.30;5.50;;;;;;;13.42;100.00;97428.10;106384;1282;24740;-91
2022/09/11 08:25:28;;;;;;;5.80;5.20;;;;;;;13.44;100.00;97435.98;106023;1279;26064;-91
2022/09/11 08:27:56;;;;;;;7.30;5.60;;;;;;;13.44;100.00;97435.98;105716;1280;23410;-91
2022/09/11 08:30:25;;;;;;;7.50;6.30;;;;;;;13.43;100.00;97441.36;105734;1281;26147;-89
2022/09/11 08:32:53;;;;;;;7.10;6.40;;;;;;;13.42;100.00;97439.39;105761;1279;25473;-90
2022/09/11 08:35:22;;;;;;;7.90;7.20;;;;;;;13.41;100.00;97441.44;105990;1279;22631;-90
2022/09/11 08:37:53;;;;;;;8.40;7.60;;;;;;;13.42;100.00;97441.32;105709;1281;25434;-89
2022/09/11 08:40:22;;;;;;;8.00;7.10;;;;;;;13.45;100.00;97441.14;105547;1281;22766;-90
2022/09/11 08:42:51;;;;;;;9.60;8.80;;;;;;;13.49;100.00;97442.61;105555;1281;24413;-90
2022/09/11 08:45:22;;;;;;;9.80;8.30;;;;;;;13.54;100.00;97442.79;105593;1281;22585;-91
2022/09/11 08:47:54;;;;;;;9.50;8.70;;;;;;;13.58;100.00;97441.01;105848;1281;22563;-88
2022/09/11 08:50:52;;;;;;;10.20;9.30;;;;;;;13.62;100.00;97438.15;105891;1281;23325;-92
2022/09/11 08:53:21;;;;;;;14.80;13.20;;;;;;;13.66;100.00;97434.42;105073;1287;22787;-90
2022/09/11 08:56:01;;;;;;;13.90;11.30;;;;;;;13.82;100.00;97442.81;105024;1288;25508;-89
2022/09/11 08:58:39;;;;;;;11.50;10.50;;;;;;;13.88;100.00;97447.33;105142;1287;22742;-92
2022/09/11 09:01:25;;;;;;;11.20;10.10;;;;;;;13.95;100.00;97445.33;105172;1287;25295;-90
2022/09/11 09:04:19;;;;;;;9.70;8.80;;;;;;;14.05;100.00;97443.20;105241;1287;25865;-91
2022/09/11 09:06:57;;;;;;;10.50;9.30;;;;;;;14.15;100.00;97443.33;105154;1287;24363;-93
2022/09/11 09:09:46;;;;;;;8.40;7.60;;;;;;;14.27;100.00;97443.67;105351;1287;22665;-91
2022/09/11 09:12:22;;;;;;;10.90;7.90;;;;;;;14.29;100.00;97449.58;105190;1287;22554;-90
2022/09/11 09:15:12;;;;;;;7.70;7.00;;;;;;;14.36;100.00;97445.42;105276;1287;24149;-90
2022/09/11 09:17:51;;;;;;;7.80;7.00;;;;;;;14.39;100.00;97446.80;105464;1287;24234;-92
2022/09/11 09:20:26;;;;;;;8.10;7.30;;;;;;;14.45;100.00;97439.81;105356;1287;22545;-91
2022/09/11 09:23:02;;;;;;;7.70;6.90;;;;;;;14.54;100.00;97440.52;105531;1287;25611;-92
2022/09/11 09:25:35;;;;;;;7.90;7.10;;;;;;;14.60;100.00;97442.27;105118;1287;25306;-89
2022/09/11 09:28:16;;;;;;;8.20;7.50;;;;;;;14.71;100.00;97445.11;105171;1287;24474;-92
2022/09/11 09:30:52;;;;;;;9.00;8.00;;;;;;;14.84;100.00;97440.05;105643;1281;22662;-91
2022/09/11 09:33:37;;;;;;;8.00;7.20;;;;;;;14.92;100.00;97439.70;105682;1281;24092;-90
2022/09/11 09:36:21;;;;;;;7.50;6.80;;;;;;;15.02;100.00;97441.24;105626;1281;22656;-91
2022/09/11 09:38:52;;;;;;;7.80;6.80;;;;;;;15.09;99.99;97442.08;105952;1280;24253;-90
2022/09/11 09:41:40;;;;;;;8.20;7.40;;;;;;;15.16;99.71;97443.16;105703;1281;22562;-89
2022/09/11 09:44:39;;;;;;;9.00;8.20;;;;;;;15.17;98.91;97443.91;106111;1281;25992;-90
2022/09/11 09:47:12;;;;;;;8.30;7.30;;;;;;;15.24;98.88;97446.13;106087;1281;22721;-91
2022/09/11 09:49:43;;;;;;;7.50;6.60;;;;;;;15.30;98.74;97447.55;105983;1280;25449;-90
2022/09/11 09:52:17;;;;;;;8.00;7.20;;;;;;;15.31;98.06;97449.30;106142;1280;22574;-91
2022/09/11 09:55:05;;;;;;;;;;;;;;;15.17;97.46;97431.79;105221;1280;1459033;-90
2022/09/11 09:57:36;;;;;;;9.40;8.50;;;;;;;15.19;97.02;97447.37;106154;1280;22573;-90
2022/09/11 10:00:11;;;;;;;8.60;7.80;;;;;;;15.16;97.45;97451.63;106109;1280;25559;-91
2022/09/11 10:02:51;;;;;;;8.50;7.50;;;;;;;15.14;97.52;97449.15;108187;1279;22567;-89
2022/09/11 10:05:36;;;;;;;9.30;8.50;;;;;;;15.16;97.39;97450.23;107926;1281;23057;-89
2022/09/11 10:08:24;;;;;;;9.90;8.90;;;;;;;15.17;97.05;97450.41;106372;1280;22547;-93
2022/09/11 10:10:58;;;;;;;8.70;7.90;;;;;;;15.24;96.89;97450.85;106572;1279;22812;-90
2022/09/11 10:13:39;;;;;;;8.70;7.90;;;;;;;15.31;97.01;97446.19;107554;1280;22548;-89
2022/09/11 10:16:24;;;;;;;9.10;8.20;;;;;;;15.37;96.59;97449.81;107544;1279;22916;-92
2022/09/11 10:18:54;;;;;;;9.60;8.70;;;;;;;15.39;95.85;97446.06;107426;1279;24213;-92
2022/09/11 10:21:36;;;;;;;7.70;7.00;;;;;;;15.44;95.44;97450.25;106975;1279;24832;-89
2022/09/11 10:24:16;;;;;;;8.20;7.40;;;;;;;15.45;95.30;97448.58;107081;1279;24040;-92
2022/09/11 10:26:50;;;;;;;7.90;7.20;;;;;;;15.48;94.47;97449.81;106794;1279;22501;-92
2022/09/11 10:29:21;;;;;;;7.40;6.70;;;;;;;15.41;93.62;97443.16;106544;1281;25370;-91
2022/09/11 10:31:53;;;;;;;7.10;6.40;;;;;;;15.49;93.47;97451.55;106339;1281;25243;-92
2022/09/11 10:34:25;;;;;;;6.40;5.40;;;;;;;15.53;93.17;97453.23;106383;1281;22967;-92
2022/09/11 10:36:56;;;;;;;6.40;5.80;;;;;;;15.55;92.27;97453.61;106452;1281;22572;-94
2022/09/11 10:39:26;;;;;;;7.00;5.70;;;;;;;15.51;91.75;97457.21;106903;1281;22865;-92
2022/09/11 10:41:58;;;;;;;7.00;6.10;;;;;;;15.48;92.20;97453.23;106774;1281;24372;-93
2022/09/11 10:44:29;;;;;;;6.30;5.40;;;;;;;15.54;92.62;97449.38;106592;1282;22590;-92
2022/09/11 10:47:13;;;;;;;5.80;5.20;;;;;;;15.61;92.12;97448.60;106375;1282;22633;-92
2022/09/11 10:49:41;;;;;;;6.90;6.20;;;;;;;15.72;92.02;97451.33;106648;1281;22962;-90
2022/09/11 10:52:12;;;;;;;7.60;6.00;;;;;;;15.75;91.43;97448.23;106620;1281;22562;-93
2022/09/11 10:54:44;;;;;;;6.60;5.90;;;;;;;15.77;90.59;97453.36;106314;1281;24208;-90
2022/09/11 10:57:16;;;;;;;7.30;6.10;;;;;;;15.74;90.76;97453.73;106235;1281;25356;-91
2022/09/11 11:00:11;;;;;;;7.90;7.10;;;;;;;15.75;91.54;97444.84;106583;1281;24201;-91
2022/09/11 11:02:50;;;;;;;8.80;7.90;;;;;;;15.81;91.12;97454.63;106057;1281;24222;-92
2022/09/11 11:05:26;;;;;;;8.80;7.90;;;;;;;15.79;91.21;97453.18;106125;1281;25889;-92
2022/09/11 11:08:04;;;;;;;7.40;6.60;;;;;;;15.76;91.44;97454.19;106514;1281;22563;-92
2022/09/11 11:11:03;;;;;;;8.70;7.30;;;;;;;15.76;91.85;97456.11;106546;1281;22751;-92
2022/09/11 11:13:45;;;;;;;8.40;7.30;;;;;;;15.74;91.24;97456.52;106543;1281;22850;-92
2022/09/11 11:16:41;;;;;;;9.20;8.30;;;;;;;15.65;91.29;97458.71;106017;1281;22570;-93
2022/09/11 11:19:24;;;;;;;8.70;6.90;;;;;;;15.68;91.48;97460.76;106199;1281;22566;-90
2022/09/11 11:22:19;;;;;;;7.90;6.90;;;;;;;15.75;91.60;97461.12;105952;1282;24358;-91
2022/09/11 11:24:59;;;;;;;6.50;5.80;;;;;;;15.72;91.47;97464.70;106132;1281;22609;-92
2022/09/11 11:27:51;;;;;;;6.70;5.70;;;;;;;15.77;91.50;97463.38;106610;1280;22752;-91
2022/09/11 11:30:29;;;;;;;6.60;5.90;;;;;;;15.76;90.74;97469.39;106720;1279;22631;-92
2022/09/11 11:33:34;;;;;;;5.90;5.00;;;;;;;15.70;90.36;97471.01;106149;1279;23077;-90
2022/09/11 11:36:41;;;;;;;5.80;5.20;;;;;;;15.54;90.91;97470.02;105915;1281;23475;-90
2022/09/11 11:39:48;;;;;;;6.60;5.70;;;;;;;15.40;91.47;97468.74;105511;1281;24252;-93
2022/09/11 11:42:42;;;;;;;6.00;5.30;;;;;;;15.30;92.03;97469.19;106029;1279;24207;-90
2022/09/11 11:45:43;;;;;;;6.10;5.40;;;;;;;15.23;92.90;97471.13;108718;1278;22544;-88
2022/09/11 11:48:25;;;;;;;5.70;4.90;;;;;;;15.21;93.27;97466.90;107996;1279;22548;-92